Time;durP1;ratioP1;P1;durP2;ratioP2;P2;SDS_P1;SDS_P2;PMS_P1;PMS_P2;Temp;Humidity;BMP_temperature;BMP_pressure;BME280_temperature;BME280_humidity;BME280_pressure;Samples;Min_cycle;Max_cycle;Signal;HPM_P1;HPM_P2
2023/01/17 00:01:15;;;;;;;3.87;2.63;;;;;;;;;;5073947;28;20242;-83
2023/01/17 00:11:53;;;;;;;4.37;2.73;;;;;;;;;;5073621;28;20262;-83
2023/01/17 00:14:22;;;;;;;2.40;2.30;;;;;;;;;;5073498;28;20232;-84
2023/01/17 00:16:49;;;;;;;3.03;2.50;;;;;;;;;;5073431;28;20243;-83
2023/01/17 01:34:05;;;;;;;2.87;2.67;;;;;;;;;;5071859;28;20225;-82
2023/01/17 01:36:34;;;;;;;2.60;2.40;;;;;;;;;;5072007;28;20240;-82
2023/01/17 01:39:01;;;;;;;5.00;2.63;;;;;;;;;;5072178;28;20201;-82
2023/01/17 01:41:28;;;;;;;2.97;2.37;;;;;;;;;;5071765;28;20242;-82
2023/01/17 01:43:55;;;;;;;5.53;2.80;;;;;;;;;;5071541;28;20693;-82
2023/01/17 01:46:24;;;;;;;1.93;1.90;;;;;;;;;;5071646;28;20233;-82
2023/01/17 01:48:53;;;;;;;2.57;2.40;;;;;;;;;;5072018;28;20669;-81
2023/01/17 01:51:22;;;;;;;4.30;2.90;;;;;;;;;;5071563;28;20237;-82
2023/01/17 01:53:53;;;;;;;3.23;2.83;;;;;;;;;;5070783;28;20651;-82
2023/01/17 01:56:22;;;;;;;3.67;3.00;;;;;;;;;;5051344;28;20633;-82
2023/01/17 01:58:51;;;;;;;2.50;2.40;;;;;;;;;;5051755;28;20685;-82
2023/01/17 02:01:18;;;;;;;2.83;2.57;;;;;;;;;;5051489;28;20233;-81
2023/01/17 02:03:46;;;;;;;3.50;3.17;;;;;;;;;;5051868;28;20403;-82
2023/01/17 02:06:21;;;;;;;3.37;2.77;;;;;;;;;;5050718;28;20239;-81
2023/01/17 02:08:48;;;;;;;5.00;2.90;;;;;;;;;;5049100;28;20206;-84
2023/01/17 02:11:17;;;;;;;3.27;2.97;;;;;;;;;;5051271;28;20268;-84
2023/01/17 02:13:44;;;;;;;4.03;2.80;;;;;;;;;;5051420;28;20232;-84
2023/01/17 02:16:17;;;;;;;3.10;2.67;;;;;;;;;;5051044;28;20237;-84
2023/01/17 02:18:51;;;;;;;3.53;2.77;;;;;;;;;;5052136;28;20202;-83
2023/01/17 02:21:25;;;;;;;2.90;2.70;;;;;;;;;;5051118;28;20234;-84
2023/01/17 02:24:15;;;;;;;2.53;2.30;;;;;;;;;;5051586;28;20232;-84
2023/01/17 02:26:48;;;;;;;3.97;2.87;;;;;;;;;;5051137;28;20237;-84
2023/01/17 02:29:43;;;;;;;5.17;3.07;;;;;;;;;;5051484;28;20647;-83
2023/01/17 02:32:15;;;;;;;3.27;2.80;;;;;;;;;;5050284;28;20230;-83
2023/01/17 02:34:45;;;;;;;5.93;2.80;;;;;;;;;;5050868;28;20226;-83
2023/01/17 02:37:15;;;;;;;2.93;2.70;;;;;;;;;;5051212;28;20566;-83
2023/01/17 02:39:45;;;;;;;4.53;2.67;;;;;;;;;;5051479;28;20206;-84
2023/01/17 02:42:15;;;;;;;2.20;2.10;;;;;;;;;;5051315;28;20202;-84
2023/01/17 02:44:42;;;;;;;2.47;2.33;;;;;;;;;;5051020;28;20230;-85
2023/01/17 02:47:26;;;;;;;2.53;2.20;;;;;;;;;;5051317;28;20214;-83
2023/01/17 02:49:54;;;;;;;4.20;2.87;;;;;;;;;;5050957;28;20246;-84
2023/01/17 02:52:27;;;;;;;2.97;2.73;;;;;;;;;;5051507;28;20217;-84
2023/01/17 02:55:05;;;;;;;2.57;2.40;;;;;;;;;;5051048;28;20235;-83
2023/01/17 02:57:41;;;;;;;4.67;3.47;;;;;;;;;;5052139;28;20312;-84
2023/01/17 03:00:15;;;;;;;3.03;2.83;;;;;;;;;;5051587;28;20260;-83
2023/01/17 03:02:47;;;;;;;6.57;3.97;;;;;;;;;;5051350;28;20194;-84
2023/01/17 03:05:16;;;;;;;3.90;3.40;;;;;;;;;;5051099;28;20630;-85
2023/01/17 03:07:44;;;;;;;3.70;3.40;;;;;;;;;;5051419;28;20221;-84
2023/01/17 03:10:12;;;;;;;2.70;2.50;;;;;;;;;;5050993;28;20265;-84
2023/01/17 03:12:40;;;;;;;6.63;3.57;;;;;;;;;;5050763;28;20747;-84
2023/01/17 03:15:09;;;;;;;3.37;2.33;;;;;;;;;;5050539;28;20241;-84
2023/01/17 03:17:37;;;;;;;5.53;3.20;;;;;;;;;;5051633;28;20206;-84
2023/01/17 03:20:06;;;;;;;5.93;3.83;;;;;;;;;;5050405;28;20241;-83
2023/01/17 03:22:33;;;;;;;3.73;3.43;;;;;;;;;;5051206;28;20205;-84
2023/01/17 03:25:00;;;;;;;4.57;3.60;;;;;;;;;;5050309;28;20674;-84
2023/01/17 03:27:27;;;;;;;7.97;3.47;;;;;;;;;;5051384;28;20209;-84
2023/01/17 03:29:54;;;;;;;3.93;3.07;;;;;;;;;;5049788;28;20237;-84
2023/01/17 03:32:21;;;;;;;5.27;3.80;;;;;;;;;;5051162;28;20229;-83
2023/01/17 03:34:48;;;;;;;5.63;3.53;;;;;;;;;;5050322;28;20226;-83
2023/01/17 03:37:16;;;;;;;4.07;3.27;;;;;;;;;;5051290;28;20212;-84
2023/01/17 03:39:43;;;;;;;3.93;3.63;;;;;;;;;;5050648;28;20229;-84
2023/01/17 03:42:10;;;;;;;4.30;3.23;;;;;;;;;;5051022;28;20217;-84
2023/01/17 03:44:37;;;;;;;3.67;3.37;;;;;;;;;;5053422;28;20224;-84
2023/01/17 03:47:04;;;;;;;5.13;3.50;;;;;;;;;;5054781;28;20206;-84
2023/01/17 03:49:31;;;;;;;3.77;3.47;;;;;;;;;;5054219;28;20572;-83
2023/01/17 03:51:58;;;;;;;3.93;3.53;;;;;;;;;;5054539;28;20197;-83
2023/01/17 03:54:27;;;;;;;3.30;3.00;;;;;;;;;;5053810;28;20645;-83
2023/01/17 03:56:54;;;;;;;3.30;3.00;;;;;;;;;;5053848;28;20263;-84
2023/01/17 03:59:21;;;;;;;3.23;2.93;;;;;;;;;;5054476;28;20233;-84
2023/01/17 04:01:48;;;;;;;3.33;3.13;;;;;;;;;;5053921;28;20236;-84
2023/01/17 04:04:15;;;;;;;3.93;3.53;;;;;;;;;;5053909;28;20588;-84
2023/01/17 04:06:42;;;;;;;5.10;4.20;;;;;;;;;;5053566;28;20238;-84
2023/01/17 04:09:09;;;;;;;4.90;3.90;;;;;;;;;;5054396;28;20202;-84
2023/01/17 04:11:37;;;;;;;3.73;3.30;;;;;;;;;;5053621;28;20320;-84
2023/01/17 04:14:04;;;;;;;7.70;3.17;;;;;;;;;;5053778;28;20230;-84
2023/01/17 04:16:32;;;;;;;5.03;3.30;;;;;;;;;;5053700;28;20264;-84
2023/01/17 04:18:59;;;;;;;4.03;3.67;;;;;;;;;;5054266;28;20206;-84
2023/01/17 04:21:27;;;;;;;5.53;3.23;;;;;;;;;;5053446;28;20629;-84
2023/01/17 04:23:54;;;;;;;4.00;3.60;;;;;;;;;;5053439;28;20722;-84
2023/01/17 04:26:21;;;;;;;3.63;3.03;;;;;;;;;;5053457;28;20247;-84
2023/01/17 04:28:49;;;;;;;5.93;3.50;;;;;;;;;;5054107;28;20224;-84
2023/01/17 04:31:16;;;;;;;4.40;4.00;;;;;;;;;;5052991;28;20245;-84
2023/01/17 04:33:44;;;;;;;3.50;3.20;;;;;;;;;;5053728;28;20230;-84
2023/01/17 04:36:11;;;;;;;4.37;3.00;;;;;;;;;;5053265;28;20229;-84
2023/01/17 04:38:38;;;;;;;3.80;3.47;;;;;;;;;;5053847;28;20217;-83
2023/01/17 04:41:05;;;;;;;6.67;3.50;;;;;;;;;;5053193;28;20237;-84
2023/01/17 04:43:33;;;;;;;4.30;3.90;;;;;;;;;;5053431;28;20261;-84
2023/01/17 04:46:03;;;;;;;5.80;3.23;;;;;;;;;;5053131;28;20265;-84
2023/01/17 04:48:30;;;;;;;4.03;3.63;;;;;;;;;;5053127;28;20263;-84
2023/01/17 04:51:00;;;;;;;3.87;3.30;;;;;;;;;;5053046;28;20241;-84
2023/01/17 04:53:28;;;;;;;2.80;2.60;;;;;;;;;;5053210;28;20267;-84
2023/01/17 04:55:55;;;;;;;6.83;3.57;;;;;;;;;;5052698;28;20245;-84
2023/01/17 04:58:22;;;;;;;4.67;3.57;;;;;;;;;;5053574;28;20210;-84
2023/01/17 05:00:50;;;;;;;5.37;3.50;;;;;;;;;;5053160;28;20241;-84
2023/01/17 05:03:19;;;;;;;2.73;2.60;;;;;;;;;;5053150;28;20257;-84
2023/01/17 05:05:46;;;;;;;3.60;3.20;;;;;;;;;;5053540;28;20238;-84
2023/01/17 05:08:13;;;;;;;3.50;3.23;;;;;;;;;;5053795;28;20217;-84
2023/01/17 05:10:40;;;;;;;3.07;2.87;;;;;;;;;;5053453;28;20237;-84
2023/01/17 05:13:07;;;;;;;4.27;3.80;;;;;;;;;;5053778;28;20237;-84
2023/01/17 05:15:36;;;;;;;3.90;3.50;;;;;;;;;;5047611;28;20244;-83
2023/01/17 05:18:07;;;;;;;4.70;3.53;;;;;;;;;;5053265;28;20674;-83
2023/01/17 05:20:36;;;;;;;5.80;4.17;;;;;;;;;;5052985;28;20245;-83
2023/01/17 05:23:03;;;;;;;5.90;3.43;;;;;;;;;;5053389;28;20210;-83
2023/01/17 05:25:31;;;;;;;3.87;3.47;;;;;;;;;;5052936;28;20324;-83
2023/01/17 05:27:59;;;;;;;3.73;3.43;;;;;;;;;;5053494;28;20214;-83
2023/01/17 05:30:26;;;;;;;7.10;3.40;;;;;;;;;;5053129;28;20261;-83
2023/01/17 05:32:54;;;;;;;2.50;2.37;;;;;;;;;;5052880;28;20604;-83
2023/01/17 05:35:22;;;;;;;3.23;3.00;;;;;;;;;;5052131;28;20317;-83
2023/01/17 05:37:51;;;;;;;4.13;3.23;;;;;;;;;;5053408;28;20576;-83
2023/01/17 05:40:18;;;;;;;3.63;3.37;;;;;;;;;;5052397;28;20753;-84
2023/01/17 05:42:45;;;;;;;4.00;3.57;;;;;;;;;;5044636;28;20199;-85
2023/01/17 05:45:15;;;;;;;4.43;3.70;;;;;;;;;;5032070;28;20255;-85
2023/01/17 05:47:42;;;;;;;4.23;3.43;;;;;;;;;;5033619;28;20206;-85
2023/01/17 05:50:10;;;;;;;4.50;3.87;;;;;;;;;;5032506;28;20257;-84
2023/01/17 05:52:37;;;;;;;7.30;4.10;;;;;;;;;;5043107;28;20311;-84
2023/01/17 05:55:06;;;;;;;4.47;4.07;;;;;;;;;;5051922;28;20240;-84
2023/01/17 05:57:34;;;;;;;4.80;4.00;;;;;;;;;;5055223;28;20213;-86
2023/01/17 06:00:01;;;;;;;4.57;3.73;;;;;;;;;;5054774;28;20236;-87
2023/01/17 06:02:28;;;;;;;5.07;4.00;;;;;;;;;;5053300;28;20221;-86
2023/01/17 06:04:55;;;;;;;6.33;4.00;;;;;;;;;;5052629;28;20234;-86
2023/01/17 06:07:22;;;;;;;4.20;3.90;;;;;;;;;;5050055;28;20186;-87
2023/01/17 06:09:49;;;;;;;4.70;4.20;;;;;;;;;;5045036;28;20198;-85
2023/01/17 06:12:17;;;;;;;5.90;4.50;;;;;;;;;;5052361;28;20205;-83
2023/01/17 06:14:44;;;;;;;5.53;4.70;;;;;;;;;;5051401;28;20222;-82
2023/01/17 06:17:11;;;;;;;5.87;4.07;;;;;;;;;;5051781;28;20202;-81
2023/01/17 06:19:38;;;;;;;5.27;4.50;;;;;;;;;;5052084;28;20206;-81
2023/01/17 06:22:05;;;;;;;5.43;3.77;;;;;;;;;;5051950;28;20209;-81
2023/01/17 06:24:33;;;;;;;5.97;4.63;;;;;;;;;;5051724;28;20222;-80
2023/01/17 06:27:00;;;;;;;7.73;4.70;;;;;;;;;;5052495;28;20240;-81
2023/01/17 06:29:28;;;;;;;8.87;5.30;;;;;;;;;;5051693;28;20202;-81
2023/01/17 06:31:55;;;;;;;6.83;5.33;;;;;;;;;;5051753;28;20226;-81
2023/01/17 06:34:22;;;;;;;6.80;5.43;;;;;;;;;;5051240;28;20229;-81
2023/01/17 06:36:49;;;;;;;9.93;6.50;;;;;;;;;;5051368;28;20644;-81
2023/01/17 06:39:16;;;;;;;6.97;5.70;;;;;;;;;;5051922;28;20213;-81
2023/01/17 06:41:43;;;;;;;9.00;6.30;;;;;;;;;;5051347;28;20530;-81
2023/01/17 06:44:10;;;;;;;7.13;5.00;;;;;;;;;;5051287;28;20229;-80
2023/01/17 06:46:39;;;;;;;6.40;4.77;;;;;;;;;;5050644;28;20457;-81
2023/01/17 06:49:06;;;;;;;5.27;4.50;;;;;;;;;;5050527;28;20674;-80
2023/01/17 06:51:33;;;;;;;5.27;4.87;;;;;;;;;;5050921;28;20244;-81
2023/01/17 06:54:00;;;;;;;6.50;4.60;;;;;;;;;;5050635;28;20237;-81
2023/01/17 06:56:30;;;;;;;7.53;5.27;;;;;;;;;;5050810;28;20237;-82
2023/01/17 06:58:57;;;;;;;5.30;4.80;;;;;;;;;;5050823;28;20763;-81
2023/01/17 07:01:24;;;;;;;4.90;4.40;;;;;;;;;;5050707;28;20246;-83
2023/01/17 07:03:52;;;;;;;6.83;4.60;;;;;;;;;;5050860;28;20252;-81
2023/01/17 07:06:20;;;;;;;4.70;4.20;;;;;;;;;;5053867;28;20252;-81
2023/01/17 07:08:47;;;;;;;7.60;4.63;;;;;;;;;;5051848;28;20595;-81
2023/01/17 07:11:14;;;;;;;6.83;5.00;;;;;;;;;;5054716;28;20243;-81
2023/01/17 07:13:42;;;;;;;5.47;4.83;;;;;;;;;;5052509;28;20233;-80
2023/01/17 07:16:09;;;;;;;8.97;5.30;;;;;;;;;;5050772;28;20612;-80
2023/01/17 07:18:40;;;;;;;6.20;5.60;;;;;;;;;;5054050;28;20210;-81
2023/01/17 07:21:12;;;;;;;6.53;5.43;;;;;;;;;;5054441;28;20705;-81
2023/01/17 07:23:39;;;;;;;6.03;4.83;;;;;;;;;;5058153;28;20284;-81
2023/01/17 07:26:06;;;;;;;7.00;5.80;;;;;;;;;;5054038;28;20609;-81
2023/01/17 07:28:33;;;;;;;9.27;6.17;;;;;;;;;;5055184;28;20621;-81
2023/01/17 07:31:05;;;;;;;7.33;6.10;;;;;;;;;;5054214;28;20237;-80
2023/01/17 07:33:32;;;;;;;6.07;5.20;;;;;;;;;;5054532;28;20296;-81
2023/01/17 07:35:59;;;;;;;9.63;5.70;;;;;;;;;;5055014;28;20230;-81
2023/01/17 07:38:28;;;;;;;10.83;6.73;;;;;;;;;;5060410;28;20637;-81
2023/01/17 07:40:58;;;;;;;8.47;7.07;;;;;;;;;;5054296;28;20245;-81
2023/01/17 07:43:25;;;;;;;11.17;6.30;;;;;;;;;;5054479;28;20250;-80
2023/01/17 07:45:52;;;;;;;8.67;6.40;;;;;;;;;;5055337;28;20245;-80
2023/01/17 07:48:20;;;;;;;10.07;6.30;;;;;;;;;;5053886;28;20210;-81
2023/01/17 07:50:52;;;;;;;9.93;6.57;;;;;;;;;;5053942;28;20307;-81
2023/01/17 07:53:19;;;;;;;8.87;6.67;;;;;;;;;;5054202;28;20233;-80
2023/01/17 07:55:47;;;;;;;9.77;7.67;;;;;;;;;;5053936;28;20617;-81
2023/01/17 07:58:14;;;;;;;12.10;7.00;;;;;;;;;;5053212;28;20209;-81
2023/01/17 08:00:43;;;;;;;8.57;7.07;;;;;;;;;;5053814;28;20249;-80
2023/01/17 08:03:12;;;;;;;9.93;7.60;;;;;;;;;;5053431;28;20906;-81
2023/01/17 08:05:39;;;;;;;7.23;6.50;;;;;;;;;;5054128;28;20237;-80
2023/01/17 08:08:06;;;;;;;8.63;6.83;;;;;;;;;;5054058;28;20253;-80
2023/01/17 08:10:33;;;;;;;9.60;6.33;;;;;;;;;;5053696;28;20237;-80
2023/01/17 08:13:02;;;;;;;9.57;5.83;;;;;;;;;;5054693;28;20213;-81
2023/01/17 08:15:29;;;;;;;6.70;4.83;;;;;;;;;;5053715;28;20237;-81
2023/01/17 08:17:57;;;;;;;5.13;4.60;;;;;;;;;;5055280;28;20214;-80
2023/01/17 08:20:24;;;;;;;5.23;4.70;;;;;;;;;;5053289;28;20268;-80
2023/01/17 08:22:55;;;;;;;6.93;4.80;;;;;;;;;;5053760;28;20213;-80
2023/01/17 08:25:23;;;;;;;6.67;4.87;;;;;;;;;;5053537;28;20237;-81
2023/01/17 08:27:50;;;;;;;5.63;4.97;;;;;;;;;;5053976;28;20206;-81
2023/01/17 08:30:18;;;;;;;6.13;5.23;;;;;;;;;;5052713;28;20256;-80
2023/01/17 08:32:45;;;;;;;6.20;4.80;;;;;;;;;;5053965;28;20210;-81
2023/01/17 08:35:13;;;;;;;6.27;5.17;;;;;;;;;;5052986;28;20611;-81
2023/01/17 08:37:40;;;;;;;7.27;5.67;;;;;;;;;;5054052;28;20233;-80
2023/01/17 08:40:08;;;;;;;8.93;6.03;;;;;;;;;;5053561;28;20650;-83
2023/01/17 08:42:38;;;;;;;6.33;5.73;;;;;;;;;;5053845;28;20209;-82
2023/01/17 08:45:05;;;;;;;7.10;5.67;;;;;;;;;;5053582;28;20249;-82
2023/01/17 08:47:34;;;;;;;6.23;5.63;;;;;;;;;;5053855;28;20600;-80
2023/01/17 08:50:01;;;;;;;11.10;5.83;;;;;;;;;;5053382;28;20743;-80
2023/01/17 08:52:28;;;;;;;6.30;5.70;;;;;;;;;;5053363;28;20796;-80
2023/01/17 08:54:55;;;;;;;8.57;4.97;;;;;;;;;;5053125;28;20237;-80
2023/01/17 08:57:22;;;;;;;6.40;5.00;;;;;;;;;;5053520;28;20701;-80
2023/01/17 09:00:03;;;;;;;11.13;5.37;;;;;;;;;;5066324;28;20251;-81
2023/01/17 09:02:30;;;;;;;9.83;6.50;;;;;;;;;;5054872;28;20201;-80
2023/01/17 09:05:00;;;;;;;39.63;19.60;;;;;;;;;;5055546;28;20234;-80
2023/01/17 09:08:00;;;;;;;38.83;20.93;;;;;;;;;;5054838;28;20295;-80
2023/01/17 09:10:35;;;;;;;13.73;8.17;;;;;;;;;;5054122;28;20241;-81
2023/01/17 09:13:02;;;;;;;18.13;6.37;;;;;;;;;;5053220;28;20885;-82
2023/01/17 09:15:32;;;;;;;6.43;5.37;;;;;;;;;;5052969;28;20254;-81
2023/01/17 09:18:01;;;;;;;7.13;5.70;;;;;;;;;;5053214;28;20638;-81
2023/01/17 09:20:30;;;;;;;6.37;5.33;;;;;;;;;;5052608;28;20234;-82
2023/01/17 09:22:57;;;;;;;7.60;6.13;;;;;;;;;;5052892;28;20219;-81
2023/01/17 09:25:24;;;;;;;9.00;6.53;;;;;;;;;;5053221;28;20238;-81
2023/01/17 09:27:51;;;;;;;8.50;6.67;;;;;;;;;;5052827;28;20220;-81
2023/01/17 09:30:18;;;;;;;10.27;6.37;;;;;;;;;;5054404;28;20241;-82
2023/01/17 09:32:52;;;;;;;6.73;5.33;;;;;;;;;;5052321;28;20206;-81
2023/01/17 09:35:19;;;;;;;6.47;5.10;;;;;;;;;;5052558;28;20245;-81
2023/01/17 09:37:49;;;;;;;5.73;5.20;;;;;;;;;;5052396;28;20217;-81
2023/01/17 09:40:17;;;;;;;8.03;5.20;;;;;;;;;;5051993;28;20236;-81
2023/01/17 09:42:46;;;;;;;11.13;5.50;;;;;;;;;;5051906;28;20202;-81
2023/01/17 09:45:16;;;;;;;6.87;4.77;;;;;;;;;;5051885;28;20290;-81
2023/01/17 09:47:45;;;;;;;5.10;4.60;;;;;;;;;;5052463;28;20190;-81
2023/01/17 09:50:25;;;;;;;5.37;4.53;;;;;;;;;;5051629;28;20659;-81
2023/01/17 09:53:01;;;;;;;5.27;4.77;;;;;;;;;;5052733;28;20213;-81
2023/01/17 09:55:29;;;;;;;7.27;4.73;;;;;;;;;;5051288;28;20244;-81
2023/01/17 09:58:00;;;;;;;7.17;4.57;;;;;;;;;;5052621;28;20212;-81
2023/01/17 10:00:33;;;;;;;5.73;4.20;;;;;;;;;;5051500;28;20238;-81
2023/01/17 10:03:06;;;;;;;7.63;5.57;;;;;;;;;;5052410;28;20206;-81
2023/01/17 10:05:38;;;;;;;8.80;6.80;;;;;;;;;;5051938;28;20291;-82
2023/01/17 10:08:15;;;;;;;5.00;4.50;;;;;;;;;;5052054;28;20217;-81
2023/01/17 10:10:43;;;;;;;4.40;4.00;;;;;;;;;;5051649;28;20233;-81
2023/01/17 10:13:19;;;;;;;7.03;4.97;;;;;;;;;;5052056;28;20225;-81
2023/01/17 10:15:53;;;;;;;4.30;3.90;;;;;;;;;;5068897;28;20237;-81
2023/01/17 10:18:29;;;;;;;4.53;4.03;;;;;;;;;;5072407;28;20213;-81
2023/01/17 10:20:59;;;;;;;5.20;4.33;;;;;;;;;;5071739;28;20236;-81
2023/01/17 10:23:35;;;;;;;5.23;4.13;;;;;;;;;;5064225;28;20240;-81
2023/01/17 10:26:03;;;;;;;6.60;4.50;;;;;;;;;;5062120;28;20229;-81
2023/01/17 10:28:34;;;;;;;3.80;3.50;;;;;;;;;;5066752;28;20668;-81
2023/01/17 10:31:03;;;;;;;6.47;5.80;;;;;;;;;;5069867;28;20256;-81
2023/01/17 10:33:31;;;;;;;6.90;4.23;;;;;;;;;;5056142;28;20230;-82
2023/01/17 10:36:02;;;;;;;6.63;3.93;;;;;;;;;;5051629;28;20244;-82
2023/01/17 10:38:32;;;;;;;4.17;3.77;;;;;;;;;;5050668;28;20206;-81
2023/01/17 10:41:05;;;;;;;2.73;2.57;;;;;;;;;;5062073;28;20225;-81
2023/01/17 10:43:39;;;;;;;4.43;3.60;;;;;;;;;;5064249;28;20229;-81
2023/01/17 10:46:09;;;;;;;3.63;3.30;;;;;;;;;;5052578;28;20290;-81
2023/01/17 10:48:39;;;;;;;5.33;3.80;;;;;;;;;;5051917;28;20205;-81
2023/01/17 10:51:15;;;;;;;4.10;3.33;;;;;;;;;;5051638;28;20238;-81
2023/01/17 10:53:49;;;;;;;5.33;3.67;;;;;;;;;;5052853;28;20667;-81
2023/01/17 10:56:17;;;;;;;5.93;3.97;;;;;;;;;;5054788;28;20237;-81
2023/01/17 10:58:58;;;;;;;4.37;3.83;;;;;;;;;;5055818;28;20209;-81
2023/01/17 11:01:25;;;;;;;4.60;3.53;;;;;;;;;;5054911;28;20237;-81
2023/01/17 11:03:53;;;;;;;4.10;3.73;;;;;;;;;;5055726;28;20768;-81
2023/01/17 11:06:23;;;;;;;4.73;3.30;;;;;;;;;;5054966;28;20230;-82
2023/01/17 11:08:53;;;;;;;4.07;3.77;;;;;;;;;;5055936;28;20229;-82
2023/01/17 11:11:21;;;;;;;4.93;3.40;;;;;;;;;;5054331;28;20229;-81
2023/01/17 11:13:49;;;;;;;2.57;2.37;;;;;;;;;;5055079;28;20249;-81
2023/01/17 11:16:19;;;;;;;3.27;2.97;;;;;;;;;;5055062;28;20326;-81
2023/01/17 11:18:48;;;;;;;3.93;3.43;;;;;;;;;;5055640;28;20210;-81
2023/01/17 11:21:16;;;;;;;3.50;3.20;;;;;;;;;;5054943;28;20237;-81
2023/01/17 11:23:45;;;;;;;2.70;2.30;;;;;;;;;;5054761;28;20312;-81
2023/01/17 11:26:22;;;;;;;3.43;2.90;;;;;;;;;;5054807;28;20297;-81
2023/01/17 11:28:50;;;;;;;3.50;3.17;;;;;;;;;;5072778;28;20203;-81
2023/01/17 11:31:25;;;;;;;3.97;2.60;;;;;;;;;;5074214;28;20244;-81
2023/01/17 11:34:05;;;;;;;3.20;2.90;;;;;;;;;;5074870;28;20241;-81
2023/01/17 11:36:33;;;;;;;3.00;2.80;;;;;;;;;;5074333;28;20315;-81
2023/01/17 11:39:02;;;;;;;3.63;3.03;;;;;;;;;;5075205;28;20213;-81
2023/01/17 11:41:33;;;;;;;2.93;2.70;;;;;;;;;;5073979;28;20266;-80
2023/01/17 11:44:01;;;;;;;2.70;2.50;;;;;;;;;;5074615;28;20568;-81
2023/01/17 11:46:28;;;;;;;6.43;4.37;;;;;;;;;;5074174;28;20237;-81
2023/01/17 11:48:56;;;;;;;2.90;2.60;;;;;;;;;;5074343;28;20665;-81
2023/01/17 11:51:25;;;;;;;2.87;2.63;;;;;;;;;;5074032;28;20249;-80
2023/01/17 11:53:54;;;;;;;2.77;2.30;;;;;;;;;;5067083;28;20295;-81
2023/01/17 11:56:22;;;;;;;2.50;2.30;;;;;;;;;;5060231;28;20232;-81
2023/01/17 11:58:51;;;;;;;2.20;2.10;;;;;;;;;;5063600;28;20230;-81
2023/01/17 12:01:27;;;;;;;2.80;2.30;;;;;;;;;;5074451;28;20622;-81
2023/01/17 12:04:15;;;;;;;2.10;2.00;;;;;;;;;;5058507;28;20595;-81
2023/01/17 12:06:48;;;;;;;4.33;2.87;;;;;;;;;;5048729;28;20707;-81
2023/01/17 12:09:21;;;;;;;3.40;2.40;;;;;;;;;;5054645;28;20296;-81
2023/01/17 12:14:45;;;;;;;2.30;2.10;;;;;;;;;;5036539;28;20230;-81
2023/01/17 12:17:21;;;;;;;2.37;2.20;;;;;;;;;;5044456;28;20220;-81
2023/01/17 12:19:59;;;;;;;2.87;2.53;;;;;;;;;;5034153;28;20258;-81
2023/01/17 12:22:37;;;;;;;2.40;2.30;;;;;;;;;;5033128;28;20215;-81
2023/01/17 12:25:13;;;;;;;2.37;2.27;;;;;;;;;;5033191;28;20738;-81
2023/01/17 12:27:46;;;;;;;3.73;2.60;;;;;;;;;;5033538;28;20273;-81
2023/01/17 12:30:24;;;;;;;2.60;2.40;;;;;;;;;;5032899;28;20232;-81
2023/01/17 12:32:59;;;;;;;2.77;2.40;;;;;;;;;;5033387;28;20209;-81
2023/01/17 12:35:28;;;;;;;2.83;2.23;;;;;;;;;;5032497;28;20244;-81
2023/01/17 12:37:57;;;;;;;2.50;2.40;;;;;;;;;;5033396;28;20207;-81
2023/01/17 12:40:26;;;;;;;3.40;2.47;;;;;;;;;;5032737;28;20238;-81
2023/01/17 12:42:55;;;;;;;3.33;2.90;;;;;;;;;;5035554;28;20216;-81
2023/01/17 12:45:26;;;;;;;2.50;2.30;;;;;;;;;;5052617;28;20636;-81
2023/01/17 12:47:58;;;;;;;2.67;2.47;;;;;;;;;;5053055;28;20631;-81
2023/01/17 12:50:27;;;;;;;3.33;2.30;;;;;;;;;;5052643;28;20321;-81
2023/01/17 12:52:59;;;;;;;2.83;2.50;;;;;;;;;;5052509;28;20295;-81
2023/01/17 12:55:32;;;;;;;4.10;2.47;;;;;;;;;;5051811;28;20243;-81
2023/01/17 12:58:11;;;;;;;5.33;2.43;;;;;;;;;;5051602;28;20212;-81
2023/01/17 13:00:40;;;;;;;4.40;3.00;;;;;;;;;;5051822;28;20244;-81
2023/01/17 13:03:13;;;;;;;3.70;2.30;;;;;;;;;;5051314;28;20220;-80
2023/01/17 13:05:40;;;;;;;2.57;2.37;;;;;;;;;;5051103;28;20638;-80
2023/01/17 13:08:19;;;;;;;3.20;2.23;;;;;;;;;;5052032;28;20205;-81
2023/01/17 13:10:50;;;;;;;3.03;2.70;;;;;;;;;;5050927;28;20244;-80
2023/01/17 13:13:21;;;;;;;2.87;2.47;;;;;;;;;;5050976;28;20212;-80
2023/01/17 13:15:50;;;;;;;2.83;2.13;;;;;;;;;;5050377;28;20760;-80
2023/01/17 13:18:21;;;;;;;2.83;2.13;;;;;;;;;;5051783;28;20262;-80
2023/01/17 13:21:09;;;;;;;2.50;2.30;;;;;;;;;;5051076;28;20243;-80
2023/01/17 13:23:43;;;;;;;2.97;2.20;;;;;;;;;;5054565;28;20712;-80
2023/01/17 13:26:13;;;;;;;2.60;2.40;;;;;;;;;;5072996;28;20603;-80
2023/01/17 13:28:49;;;;;;;3.33;2.27;;;;;;;;;;5071946;28;20219;-80
2023/01/17 13:31:22;;;;;;;2.23;2.13;;;;;;;;;;5072006;28;20593;-80
2023/01/17 13:33:56;;;;;;;4.63;2.17;;;;;;;;;;5071741;28;20569;-80
2023/01/17 13:36:30;;;;;;;2.40;2.20;;;;;;;;;;5071284;28;20243;-79
2023/01/17 13:39:05;;;;;;;2.43;2.23;;;;;;;;;;5071886;28;20200;-80
2023/01/17 13:41:37;;;;;;;3.77;2.43;;;;;;;;;;5052107;28;20774;-80
2023/01/17 13:44:23;;;;;;;2.33;2.20;;;;;;;;;;5059904;28;20229;-80
2023/01/17 13:46:59;;;;;;;4.60;2.30;;;;;;;;;;5042695;28;20231;-80
2023/01/17 13:49:34;;;;;;;2.73;2.20;;;;;;;;;;5054030;28;20209;-81
2023/01/17 13:52:03;;;;;;;2.50;2.30;;;;;;;;;;5055290;28;20223;-81
2023/01/17 13:54:32;;;;;;;2.30;2.10;;;;;;;;;;5008546;28;1027765;-80
2023/01/17 13:57:14;;;;;;;2.80;2.37;;;;;;;;;;5058208;28;20226;-80
2023/01/17 13:59:41;;;;;;;2.87;2.27;;;;;;;;;;5055780;28;20206;-80
2023/01/17 14:02:34;;;;;;;3.67;2.20;;;;;;;;;;5051400;28;20206;-79
2023/01/17 14:05:09;;;;;;;2.37;2.03;;;;;;;;;;5051348;28;20237;-80
2023/01/17 14:07:40;;;;;;;2.37;2.27;;;;;;;;;;5049711;28;20209;-79
2023/01/17 14:10:31;;;;;;;2.20;2.10;;;;;;;;;;5050905;28;20233;-79
2023/01/17 14:12:58;;;;;;;2.00;1.90;;;;;;;;;;5051036;28;20206;-79
2023/01/17 14:15:26;;;;;;;2.93;2.10;;;;;;;;;;5050641;28;20261;-79
2023/01/17 14:17:56;;;;;;;2.70;2.20;;;;;;;;;;5051553;28;20256;-78
2023/01/17 14:20:36;;;;;;;2.30;2.10;;;;;;;;;;5048949;28;20265;-78
2023/01/17 14:23:11;;;;;;;3.23;2.40;;;;;;;;;;5048182;28;20235;-78
2023/01/17 14:25:39;;;;;;;2.60;2.40;;;;;;;;;;5048322;28;20239;-78
2023/01/17 14:28:08;;;;;;;2.60;2.40;;;;;;;;;;5050475;28;20206;-78
2023/01/17 14:30:37;;;;;;;2.70;2.50;;;;;;;;;;5050580;28;20642;-78
2023/01/17 14:33:14;;;;;;;2.63;2.43;;;;;;;;;;5050587;28;20209;-78
2023/01/17 14:35:50;;;;;;;4.20;2.60;;;;;;;;;;5050758;28;20260;-78
2023/01/17 14:38:19;;;;;;;2.97;2.60;;;;;;;;;;5050957;28;20212;-77
2023/01/17 14:40:50;;;;;;;2.60;2.40;;;;;;;;;;5050853;28;20283;-78
2023/01/17 14:43:19;;;;;;;7.40;2.40;;;;;;;;;;5050625;28;20234;-78
2023/01/17 14:45:47;;;;;;;2.60;2.40;;;;;;;;;;5050632;28;20237;-78
2023/01/17 14:48:18;;;;;;;7.00;2.80;;;;;;;;;;5051161;28;20209;-78
2023/01/17 14:50:46;;;;;;;3.17;2.47;;;;;;;;;;5050645;28;20240;-78
2023/01/17 14:53:17;;;;;;;4.80;2.57;;;;;;;;;;5050357;28;20209;-78
2023/01/17 14:55:55;;;;;;;3.30;2.40;;;;;;;;;;5050539;28;20236;-78
2023/01/17 14:58:23;;;;;;;2.73;2.53;;;;;;;;;;5050860;28;20255;-78
2023/01/17 15:00:51;;;;;;;3.13;2.80;;;;;;;;;;5050419;28;20237;-78
2023/01/17 15:03:21;;;;;;;2.83;2.50;;;;;;;;;;5050663;28;20621;-78
2023/01/17 15:05:50;;;;;;;2.70;2.50;;;;;;;;;;5050360;28;20237;-78
2023/01/17 15:08:19;;;;;;;3.00;2.47;;;;;;;;;;5050814;28;20216;-78
2023/01/17 15:10:48;;;;;;;2.60;2.40;;;;;;;;;;5050088;28;20616;-78
2023/01/17 15:13:17;;;;;;;6.63;2.87;;;;;;;;;;5050369;28;20216;-78
2023/01/17 15:15:44;;;;;;;3.03;2.73;;;;;;;;;;5050397;28;20259;-78
2023/01/17 15:18:28;;;;;;;4.20;2.60;;;;;;;;;;5050686;28;20236;-78
2023/01/17 15:20:57;;;;;;;3.13;2.60;;;;;;;;;;5050475;28;20327;-77
2023/01/17 15:23:28;;;;;;;3.53;2.50;;;;;;;;;;5050227;28;20236;-77
2023/01/17 15:25:56;;;;;;;4.60;2.60;;;;;;;;;;5050298;28;20243;-77
2023/01/17 15:28:23;;;;;;;3.40;2.77;;;;;;;;;;5050577;28;20213;-77
2023/01/17 15:31:17;;;;;;;2.70;2.37;;;;;;;;;;5050089;28;20236;-78
2023/01/17 15:33:47;;;;;;;3.77;2.63;;;;;;;;;;5015131;28;20229;-77
2023/01/17 15:36:22;;;;;;;3.00;2.70;;;;;;;;;;5050056;28;20247;-77
2023/01/17 15:38:51;;;;;;;4.60;2.60;;;;;;;;;;5050927;28;20211;-76
2023/01/17 15:41:21;;;;;;;3.33;2.70;;;;;;;;;;5053295;28;20235;-77
2023/01/17 15:43:50;;;;;;;2.93;2.33;;;;;;;;;;5054014;28;20619;-78
2023/01/17 15:46:32;;;;;;;2.70;2.50;;;;;;;;;;5053552;28;20781;-79
2023/01/17 15:49:07;;;;;;;4.13;2.60;;;;;;;;;;5052504;28;20215;-78
2023/01/17 15:51:37;;;;;;;2.80;2.60;;;;;;;;;;5037448;28;20238;-79
2023/01/17 15:54:23;;;;;;;5.00;2.90;;;;;;;;;;5045281;28;20316;-79
2023/01/17 15:57:01;;;;;;;2.63;2.43;;;;;;;;;;5050590;28;20238;-78
2023/01/17 15:59:30;;;;;;;3.00;2.80;;;;;;;;;;5052153;28;20728;-79
2023/01/17 16:01:58;;;;;;;5.93;2.87;;;;;;;;;;5053795;28;20692;-78
2023/01/17 16:04:35;;;;;;;4.83;2.70;;;;;;;;;;5053258;28;20748;-79
2023/01/17 16:07:19;;;;;;;3.77;2.80;;;;;;;;;;5054139;28;20246;-82
2023/01/17 16:09:46;;;;;;;6.80;2.80;;;;;;;;;;5047089;28;20648;-80
2023/01/17 16:12:13;;;;;;;5.73;2.80;;;;;;;;;;5035970;28;20258;-79
2023/01/17 16:14:40;;;;;;;8.03;3.03;;;;;;;;;;5041162;28;20223;-79
2023/01/17 16:17:12;;;;;;;4.40;2.83;;;;;;;;;;5053385;28;20699;-79
2023/01/17 16:19:40;;;;;;;5.20;3.30;;;;;;;;;;5053570;28;20202;-79
2023/01/17 16:22:08;;;;;;;7.43;3.30;;;;;;;;;;5052473;28;20752;-79
2023/01/17 16:24:35;;;;;;;3.10;2.80;;;;;;;;;;5055356;28;20719;-80
2023/01/17 16:27:03;;;;;;;3.27;2.93;;;;;;;;;;5076308;28;20203;-78